Patriarch — WBN3014 — position and weather

sailwx.info

Track history (hours):
 
Tides and Currents Weather Stations Pressure Air Temp Water Temp Dewpoint Dewpoint Depression Visibility Wind Speed Wind Dir Waves Ship Positions

Patriarch

Owner: CROWLEY PUERTO RICO SERVICES INC, Jacksonville, FL. More information available from US FCC via Universal Licensing System and Coast Guard Vessel Documentation Center.

Last reported at 2017-Apr-22 21:50 UTC. Time now 2017-Apr-27 07:16 UTC.
Position N 18°31' W 066°11'.

Length 46 m; draft 4.6 m.

Type: Towing. MMSI: 366766940.

Date/timePositionNaut miles runAvg speedWind from/ knotsBaromVisibWave heightAir tempDewpointWater temp
2017-Apr-22 21:50N 18°31' W 066°11'4 9.3
2017-Apr-22 21:23N 18°31' W 066°07'1 3.8
2017-Apr-22 21:00N 18°30' W 066°06'3 5.3
2017-Apr-22 20:31N 18°27' W 066°07'1 1.9
2017-Apr-22 19:59N 18°27' W 066°06'0 0.0
2017-Apr-22 18:20N 18°27' W 066°06'0 0.0
2017-Apr-22 13:44N 18°27' W 066°06'0 0.0
2017-Apr-22 11:17N 18°27' W 066°06'0 0.0
2017-Apr-22 10:59N 18°27' W 066°06'1 1.2
2017-Apr-22 10:27N 18°27' W 066°07'3 5.4
2017-Apr-22 09:58N 18°30' W 066°07'2 4.1
2017-Apr-22 09:29N 18°32' W 066°07'4 5.6
2017-Apr-22 08:50N 18°32' W 066°11'  
Track history (hours):
 
Tides and Currents Weather Stations Pressure Air Temp Water Temp Dewpoint Dewpoint Depression Visibility Wind Speed Wind Dir Waves Ship Positions

Patriarch

Owner: CROWLEY PUERTO RICO SERVICES INC, Jacksonville, FL. More information available from US FCC via Universal Licensing System and Coast Guard Vessel Documentation Center.

Last reported at 2017-Apr-22 21:50 UTC. Time now 2017-Apr-27 07:16 UTC.
Position N 18°31' W 066°11'.

Length 46 m; draft 4.6 m.

Type: Towing. MMSI: 366766940.

Date/timePositionNaut miles runAvg speedWind from/ knotsBaromVisibWave heightAir tempDewpointWater temp
2017-Apr-22 21:50N 18°31' W 066°11'4 9.3
2017-Apr-22 21:23N 18°31' W 066°07'1 3.8
2017-Apr-22 21:00N 18°30' W 066°06'3 5.3
2017-Apr-22 20:31N 18°27' W 066°07'1 1.9
2017-Apr-22 19:59N 18°27' W 066°06'0 0.0
2017-Apr-22 18:20N 18°27' W 066°06'0 0.0
2017-Apr-22 13:44N 18°27' W 066°06'0 0.0
2017-Apr-22 11:17N 18°27' W 066°06'0 0.0
2017-Apr-22 10:59N 18°27' W 066°06'1 1.2
2017-Apr-22 10:27N 18°27' W 066°07'3 5.4
2017-Apr-22 09:58N 18°30' W 066°07'2 4.1
2017-Apr-22 09:29N 18°32' W 066°07'4 5.6
2017-Apr-22 08:50N 18°32' W 066°11'  

Dump ship's entire track history